Time;durP1;ratioP1;P1;durP2;ratioP2;P2;SDS_P1;SDS_P2;PMS_P1;PMS_P2;Temp;Humidity;BMP_temperature;BMP_pressure;BME280_temperature;BME280_humidity;BME280_pressure;Samples;Min_cycle;Max_cycle;Signal;HPM_P1;HPM_P2
2024/01/02 00:00:37;;;;;;;17.60;16.80;;;7.30;99.90;;;;;;5039606;28;20809;-68
2024/01/02 00:03:04;;;;;;;17.83;17.03;;;7.30;99.90;;;;;;5045159;28;20938;-70
2024/01/02 00:05:32;;;;;;;16.97;16.27;;;7.30;99.90;;;;;;5037614;28;20499;-70
2024/01/02 00:07:58;;;;;;;17.03;16.30;;;7.40;99.90;;;;;;5043068;28;20492;-71
2024/01/02 00:10:26;;;;;;;17.63;16.83;;;7.40;99.90;;;;;;5046869;28;20448;-70
2024/01/02 00:12:53;;;;;;;17.60;16.90;;;7.40;99.90;;;;;;5038129;28;20463;-70
2024/01/02 00:15:19;;;;;;;17.83;17.10;;;7.40;99.90;;;;;;5047254;28;20559;-71
2024/01/02 00:17:48;;;;;;;16.83;16.13;;;7.40;99.90;;;;;;5035771;28;20857;-70
2024/01/02 00:20:15;;;;;;;18.10;17.30;;;7.50;99.90;;;;;;5042903;28;20452;-69
2024/01/02 00:22:42;;;;;;;17.50;16.80;;;7.50;99.90;;;;;;5047270;28;20464;-72
2024/01/02 00:25:10;;;;;;;17.13;16.43;;;7.40;99.90;;;;;;5036848;28;20483;-72
2024/01/02 00:27:37;;;;;;;18.03;17.33;;;7.30;99.90;;;;;;5035886;28;20457;-70
2024/01/02 00:30:04;;;;;;;17.17;16.47;;;7.40;99.90;;;;;;5034193;28;20486;-70
2024/01/02 00:32:33;;;;;;;16.63;16.03;;;7.30;99.90;;;;;;5033912;28;20454;-71
2024/01/02 00:35:03;;;;;;;16.90;16.30;;;7.30;99.90;;;;;;5038768;28;20552;-71
2024/01/02 00:37:31;;;;;;;17.17;16.57;;;7.30;99.90;;;;;;5041632;28;20551;-73
2024/01/02 00:39:59;;;;;;;16.80;16.20;;;7.20;99.90;;;;;;5046466;28;21340;-70
2024/01/02 00:42:26;;;;;;;16.73;16.13;;;7.30;99.90;;;;;;5041111;28;20482;-71
2024/01/02 00:44:53;;;;;;;16.60;16.00;;;7.30;99.90;;;;;;5031792;28;21099;-70
2024/01/02 00:47:21;;;;;;;17.17;16.57;;;7.20;99.90;;;;;;5035875;28;20472;-73
2024/01/02 00:49:48;;;;;;;16.50;15.90;;;7.30;99.90;;;;;;5036260;28;20479;-70
2024/01/02 00:52:17;;;;;;;16.13;15.63;;;7.20;99.90;;;;;;5033795;28;20939;-71
2024/01/02 00:54:46;;;;;;;16.40;15.90;;;7.20;99.90;;;;;;5042043;28;20452;-70
2024/01/02 00:57:13;;;;;;;15.87;15.37;;;7.20;99.90;;;;;;5045539;28;20857;-72
2024/01/02 00:59:39;;;;;;;16.07;15.57;;;7.20;99.90;;;;;;5038964;28;20457;-74
2024/01/02 01:02:06;;;;;;;16.17;15.67;;;7.20;99.90;;;;;;5040141;28;20460;-69
2024/01/02 01:04:33;;;;;;;16.47;15.97;;;7.20;99.90;;;;;;5035701;28;20485;-72
2024/01/02 01:07:00;;;;;;;14.70;14.30;;;7.10;99.90;;;;;;5034778;28;20463;-74
2024/01/02 01:09:28;;;;;;;16.60;16.10;;;7.20;99.90;;;;;;5039873;28;20456;-71
2024/01/02 01:11:57;;;;;;;16.47;15.97;;;7.20;99.90;;;;;;5043796;28;20461;-73
2024/01/02 01:14:24;;;;;;;16.57;16.07;;;7.20;99.90;;;;;;5044947;28;20448;-74
2024/01/02 01:16:50;;;;;;;15.83;15.33;;;7.20;99.90;;;;;;5040697;28;20465;-73
2024/01/02 01:19:18;;;;;;;16.80;16.30;;;7.20;99.90;;;;;;5034059;28;20461;-73
2024/01/02 01:21:44;;;;;;;15.87;15.37;;;7.20;99.90;;;;;;5039802;28;20496;-70
2024/01/02 01:24:11;;;;;;;16.20;15.70;;;7.20;99.90;;;;;;5033979;28;20492;-72
2024/01/02 01:26:39;;;;;;;16.50;16.00;;;7.10;99.90;;;;;;5037083;28;20556;-75
2024/01/02 01:29:06;;;;;;;16.20;15.70;;;7.20;99.90;;;;;;5045633;28;20518;-70
2024/01/02 01:31:33;;;;;;;16.30;15.80;;;7.20;99.90;;;;;;5047530;28;20954;-71
2024/01/02 01:34:00;;;;;;;15.83;15.33;;;7.20;99.90;;;;;;5033475;28;20892;-71
2024/01/02 01:36:27;;;;;;;16.57;16.07;;;7.10;99.90;;;;;;5035882;28;20542;-71
2024/01/02 01:38:53;;;;;;;15.63;15.13;;;7.20;99.90;;;;;;5049607;28;20483;-74
2024/01/02 01:41:21;;;;;;;16.33;15.83;;;7.20;99.90;;;;;;5049819;28;20796;-71
2024/01/02 01:43:49;;;;;;;16.10;15.60;;;7.30;99.90;;;;;;5048486;28;20472;-73
2024/01/02 01:46:17;;;;;;;16.07;15.57;;;7.30;99.90;;;;;;5038662;28;20464;-71
2024/01/02 01:48:45;;;;;;;16.30;15.80;;;7.30;99.90;;;;;;5048282;28;20468;-70
2024/01/02 01:51:13;;;;;;;16.13;15.63;;;7.20;99.90;;;;;;5051100;28;20452;-69
2024/01/02 01:53:39;;;;;;;14.77;14.37;;;7.20;99.90;;;;;;5043486;28;20844;-72
2024/01/02 01:56:07;;;;;;;15.33;14.93;;;7.30;99.90;;;;;;5045602;28;20479;-71
2024/01/02 01:58:35;;;;;;;15.30;14.90;;;7.20;99.90;;;;;;5048050;28;20448;-71
2024/01/02 02:01:04;;;;;;;15.50;15.10;;;7.20;99.90;;;;;;5044209;28;20449;-71
2024/01/02 02:03:33;;;;;;;14.50;14.10;;;7.30;99.90;;;;;;5045301;28;20544;-71
2024/01/02 02:06:00;;;;;;;14.10;13.70;;;7.30;99.90;;;;;;5031418;28;20501;-71
2024/01/02 02:08:27;;;;;;;13.90;13.50;;;7.30;99.90;;;;;;5043465;28;20698;-71
2024/01/02 02:10:55;;;;;;;14.10;13.70;;;7.20;99.90;;;;;;5049362;28;20812;-71
2024/01/02 02:13:22;;;;;;;14.40;14.00;;;7.30;99.90;;;;;;5037868;28;20927;-71
2024/01/02 02:15:49;;;;;;;14.60;14.20;;;7.20;99.90;;;;;;5047685;28;20825;-71
2024/01/02 02:18:17;;;;;;;14.10;13.70;;;7.20;99.90;;;;;;5043343;28;20881;-72
2024/01/02 02:20:45;;;;;;;14.40;14.00;;;7.20;99.90;;;;;;5037408;28;20469;-71
2024/01/02 02:23:13;;;;;;;14.20;13.80;;;7.20;99.90;;;;;;5039867;28;20853;-71
2024/01/02 02:25:40;;;;;;;13.93;13.53;;;7.20;99.90;;;;;;5038929;28;20484;-71
2024/01/02 02:28:08;;;;;;;14.00;13.60;;;7.20;99.90;;;;;;5042616;28;20951;-71
2024/01/02 02:30:35;;;;;;;13.20;12.90;;;7.20;99.90;;;;;;5041716;28;20494;-71
2024/01/02 02:33:03;;;;;;;14.07;13.67;;;7.20;99.90;;;;;;5046578;28;20451;-71
2024/01/02 02:35:30;;;;;;;13.63;13.33;;;7.20;99.90;;;;;;5035683;28;20483;-71
2024/01/02 02:37:57;;;;;;;13.07;12.77;;;7.20;99.90;;;;;;5036163;28;20848;-71
2024/01/02 02:40:26;;;;;;;13.03;12.73;;;7.20;99.90;;;;;;5045147;28;20480;-71
2024/01/02 02:42:54;;;;;;;12.53;12.23;;;7.10;99.90;;;;;;5045858;28;20453;-71
2024/01/02 02:45:21;;;;;;;12.70;12.40;;;7.20;99.90;;;;;;5043079;28;20614;-71
2024/01/02 02:47:47;;;;;;;12.77;12.47;;;7.20;99.90;;;;;;5031867;28;20469;-71
2024/01/02 02:50:15;;;;;;;12.67;12.37;;;7.30;99.90;;;;;;5043321;28;20458;-71
2024/01/02 02:52:43;;;;;;;13.90;13.50;;;7.30;99.90;;;;;;5034903;28;20468;-71
2024/01/02 02:55:09;;;;;;;12.57;12.27;;;7.30;99.90;;;;;;5041624;28;20467;-71
2024/01/02 02:57:38;;;;;;;13.13;12.83;;;7.30;99.90;;;;;;5047802;28;20939;-71
2024/01/02 03:00:06;;;;;;;13.47;13.17;;;7.30;99.90;;;;;;5043729;28;20463;-71
2024/01/02 03:02:33;;;;;;;13.53;13.20;;;7.20;99.90;;;;;;5048464;28;20465;-71
2024/01/02 03:05:00;;;;;;;13.43;13.13;;;7.20;99.90;;;;;;5047540;28;20476;-72
2024/01/02 03:07:27;;;;;;;13.30;13.00;;;7.10;99.90;;;;;;5037701;28;20923;-72
2024/01/02 03:09:53;;;;;;;14.10;13.70;;;7.10;99.90;;;;;;5040640;28;20963;-71
2024/01/02 03:12:20;;;;;;;12.37;12.07;;;7.00;99.90;;;;;;5041831;28;20469;-71
2024/01/02 03:14:48;;;;;;;13.60;13.30;;;7.00;99.90;;;;;;5042431;28;20202;-71
2024/01/02 03:17:15;;;;;;;12.83;12.53;;;6.90;99.90;;;;;;5036370;28;20543;-71
2024/01/02 03:19:42;;;;;;;12.83;12.53;;;7.00;99.90;;;;;;5046977;28;20453;-71
2024/01/02 03:22:09;;;;;;;13.10;12.80;;;7.00;99.90;;;;;;5039029;28;20468;-71
2024/01/02 03:24:37;;;;;;;13.17;12.87;;;7.00;99.90;;;;;;5046051;28;20579;-71
2024/01/02 03:27:04;;;;;;;13.10;12.80;;;7.00;99.90;;;;;;5038785;28;20489;-71
2024/01/02 03:29:32;;;;;;;13.00;12.70;;;7.00;99.90;;;;;;5045597;28;20490;-71
2024/01/02 03:32:00;;;;;;;13.10;12.80;;;6.90;99.90;;;;;;5045457;28;20728;-71
2024/01/02 03:34:27;;;;;;;12.33;12.03;;;6.90;99.90;;;;;;5038411;28;20676;-72
2024/01/02 03:36:54;;;;;;;12.40;12.10;;;6.90;99.90;;;;;;5043177;28;20470;-71
2024/01/02 03:39:21;;;;;;;12.07;11.77;;;6.90;99.90;;;;;;5033849;28;20489;-71
2024/01/02 03:41:48;;;;;;;13.00;12.70;;;7.00;99.90;;;;;;5032470;28;20461;-71
2024/01/02 03:44:15;;;;;;;13.60;13.30;;;7.00;99.90;;;;;;5034708;28;20464;-71
2024/01/02 03:46:42;;;;;;;13.60;13.30;;;7.00;99.90;;;;;;5040997;28;20495;-71
2024/01/02 03:49:11;;;;;;;13.80;13.50;;;7.00;99.90;;;;;;5047017;28;20460;-71
2024/01/02 03:51:38;;;;;;;13.50;13.20;;;7.00;99.90;;;;;;5041873;28;20465;-71
2024/01/02 03:54:04;;;;;;;13.17;12.87;;;7.00;99.90;;;;;;5035655;28;20465;-72
2024/01/02 03:56:31;;;;;;;13.47;13.17;;;7.00;99.90;;;;;;5039171;28;20457;-71
2024/01/02 03:58:58;;;;;;;12.10;11.80;;;7.00;99.90;;;;;;5029999;28;20454;-71
2024/01/02 04:01:25;;;;;;;12.60;12.30;;;7.00;99.90;;;;;;5047007;28;20461;-71
2024/01/02 04:03:52;;;;;;;12.80;12.50;;;7.00;99.90;;;;;;5042948;28;20471;-71
2024/01/02 04:06:21;;;;;;;13.33;13.03;;;7.00;99.90;;;;;;5047223;28;20488;-71
2024/01/02 04:08:47;;;;;;;13.80;13.50;;;7.10;99.90;;;;;;5047090;28;20548;-71
2024/01/02 04:11:16;;;;;;;13.40;13.10;;;7.00;99.90;;;;;;5038166;28;20552;-71
2024/01/02 04:13:43;;;;;;;12.80;12.50;;;7.10;99.90;;;;;;5027729;28;20838;-71
2024/01/02 04:16:09;;;;;;;12.90;12.60;;;7.20;99.90;;;;;;5041928;28;20463;-71
2024/01/02 04:18:37;;;;;;;12.27;11.97;;;7.20;99.90;;;;;;5047287;28;21012;-71
2024/01/02 04:21:04;;;;;;;11.90;11.60;;;7.20;99.90;;;;;;5044170;28;21051;-71
2024/01/02 04:23:33;;;;;;;10.70;10.50;;;7.30;99.90;;;;;;5043622;28;20522;-71
2024/01/02 04:26:00;;;;;;;10.90;10.70;;;7.40;99.90;;;;;;5038086;28;21002;-71
2024/01/02 04:28:28;;;;;;;11.67;11.43;;;7.50;99.90;;;;;;5045995;28;20840;-71
2024/01/02 04:30:54;;;;;;;12.30;12.00;;;7.50;99.90;;;;;;5040007;28;20450;-71
2024/01/02 04:33:21;;;;;;;12.70;12.40;;;7.50;99.90;;;;;;5031493;28;20481;-72
2024/01/02 04:35:48;;;;;;;12.90;12.60;;;7.60;99.90;;;;;;5035711;28;20479;-72
2024/01/02 04:38:16;;;;;;;12.43;12.13;;;7.80;99.90;;;;;;5045771;28;20493;-72
2024/01/02 04:40:44;;;;;;;12.50;12.20;;;7.90;99.90;;;;;;5033955;28;20465;-72
2024/01/02 04:43:11;;;;;;;11.17;10.97;;;8.00;99.90;;;;;;5044429;28;20449;-71
2024/01/02 04:45:38;;;;;;;10.80;10.60;;;8.30;99.90;;;;;;5044785;28;20476;-71
2024/01/02 04:48:06;;;;;;;11.50;11.30;;;8.60;99.90;;;;;;5046940;28;20497;-71
2024/01/02 04:50:33;;;;;;;10.33;10.13;;;8.80;99.90;;;;;;5036439;28;20467;-72
2024/01/02 04:53:00;;;;;;;10.37;10.17;;;9.00;99.90;;;;;;5042242;28;20518;-72
2024/01/02 04:55:28;;;;;;;10.13;9.93;;;9.20;99.90;;;;;;5032856;28;20462;-72
2024/01/02 04:57:57;;;;;;;10.80;10.60;;;9.40;99.90;;;;;;5047223;28;20467;-72
2024/01/02 05:00:23;;;;;;;11.00;10.80;;;9.40;99.90;;;;;;5042464;28;20453;-72
2024/01/02 05:02:51;;;;;;;11.67;11.40;;;9.50;99.90;;;;;;5036391;28;20471;-72
2024/01/02 05:05:19;;;;;;;11.17;10.97;;;9.50;99.90;;;;;;5037175;28;20566;-72
2024/01/02 05:07:46;;;;;;;10.30;10.10;;;9.50;99.90;;;;;;5050732;28;20809;-72
2024/01/02 05:10:12;;;;;;;10.47;10.27;;;9.50;99.90;;;;;;5050521;28;20459;-72
2024/01/02 05:12:39;;;;;;;10.00;9.80;;;9.60;99.90;;;;;;5042037;28;20476;-72
2024/01/02 05:15:08;;;;;;;9.97;9.77;;;9.60;99.90;;;;;;5033696;28;20563;-72
2024/01/02 05:17:36;;;;;;;10.03;9.83;;;9.70;99.90;;;;;;5047045;28;20443;-72
2024/01/02 05:20:03;;;;;;;9.87;9.67;;;9.70;99.90;;;;;;5042289;28;20518;-72
2024/01/02 05:22:30;;;;;;;10.00;9.80;;;9.70;99.90;;;;;;5048035;28;20459;-74
2024/01/02 05:24:57;;;;;;;10.13;9.93;;;9.70;99.90;;;;;;5042484;28;20870;-74
2024/01/02 05:27:24;;;;;;;10.67;10.47;;;9.80;99.90;;;;;;5041155;28;20551;-72
2024/01/02 05:29:50;;;;;;;10.90;10.70;;;9.80;99.90;;;;;;5039690;28;20481;-72
2024/01/02 05:32:20;;;;;;;10.90;10.70;;;9.80;99.90;;;;;;5048778;28;20463;-71
2024/01/02 05:34:47;;;;;;;11.20;11.00;;;9.80;99.90;;;;;;5038423;28;20473;-72
2024/01/02 05:37:16;;;;;;;10.77;10.57;;;9.80;99.90;;;;;;5037051;28;20465;-72
2024/01/02 05:39:42;;;;;;;10.20;10.00;;;9.90;99.90;;;;;;5038553;28;20571;-72
2024/01/02 05:42:09;;;;;;;10.03;9.83;;;9.90;99.90;;;;;;5040806;28;20470;-74
2024/01/02 05:44:36;;;;;;;10.50;10.30;;;9.90;99.90;;;;;;5034814;28;20808;-71
2024/01/02 05:47:04;;;;;;;10.07;9.87;;;9.90;99.90;;;;;;5038570;28;20491;-72
2024/01/02 05:49:33;;;;;;;10.43;10.23;;;10.00;99.90;;;;;;5034018;28;20458;-74
2024/01/02 05:52:00;;;;;;;10.43;10.23;;;10.00;99.90;;;;;;5047255;28;20893;-73
2024/01/02 05:54:28;;;;;;;9.87;9.67;;;9.90;99.90;;;;;;5049624;28;20940;-72
2024/01/02 05:56:55;;;;;;;10.17;9.97;;;10.00;99.90;;;;;;5043130;28;20464;-72
2024/01/02 05:59:22;;;;;;;10.33;10.13;;;10.00;99.90;;;;;;5049893;28;20453;-72
2024/01/02 06:01:48;;;;;;;9.97;9.77;;;10.00;99.90;;;;;;5048656;28;20474;-72
2024/01/02 06:04:17;;;;;;;9.80;9.60;;;10.10;99.90;;;;;;5038992;28;20552;-72
2024/01/02 06:06:45;;;;;;;10.23;10.03;;;10.10;99.90;;;;;;5033775;28;20555;-75
2024/01/02 06:09:12;;;;;;;10.37;10.17;;;10.10;99.90;;;;;;5043663;28;20542;-72
2024/01/02 06:11:39;;;;;;;10.73;10.53;;;10.10;99.90;;;;;;5044923;28;20929;-73
2024/01/02 06:14:21;;;;;;;10.77;10.57;;;10.10;99.90;;;;;;5048778;28;21001;-72
2024/01/02 06:16:48;;;;;;;10.33;10.13;;;10.20;99.90;;;;;;5038212;28;20466;-72
2024/01/02 06:19:18;;;;;;;10.03;9.83;;;10.20;99.90;;;;;;5049391;28;20962;-71
2024/01/02 06:21:47;;;;;;;9.90;9.70;;;10.20;99.90;;;;;;5043914;28;20470;-72
2024/01/02 06:24:14;;;;;;;10.80;10.60;;;10.20;99.90;;;;;;5039223;28;20486;-74
2024/01/02 06:26:41;;;;;;;10.67;10.47;;;10.30;99.90;;;;;;5032147;28;20868;-72
2024/01/02 06:29:08;;;;;;;10.13;9.93;;;10.30;99.90;;;;;;5041162;28;20507;-71
2024/01/02 06:31:35;;;;;;;10.17;9.97;;;10.30;99.90;;;;;;5037260;28;20464;-72
2024/01/02 06:34:02;;;;;;;10.33;10.13;;;10.30;99.90;;;;;;5040734;28;20456;-71
2024/01/02 06:36:29;;;;;;;10.40;10.20;;;10.40;99.90;;;;;;5036571;28;20897;-73
2024/01/02 06:38:58;;;;;;;10.00;9.80;;;10.40;99.90;;;;;;5046037;28;20545;-71
2024/01/02 06:41:25;;;;;;;10.43;10.23;;;10.40;99.90;;;;;;5045178;28;20460;-75
2024/01/02 06:43:52;;;;;;;10.97;10.77;;;10.50;99.90;;;;;;5036980;28;20552;-73
2024/01/02 06:46:19;;;;;;;10.70;10.50;;;10.40;99.90;;;;;;5039771;28;21262;-71
2024/01/02 06:48:46;;;;;;;11.03;10.83;;;10.40;99.90;;;;;;5035343;28;20566;-71
2024/01/02 06:51:13;;;;;;;10.77;10.57;;;10.60;99.90;;;;;;5045410;28;20462;-71
2024/01/02 06:53:40;;;;;;;10.77;10.57;;;10.60;99.90;;;;;;5037469;28;20476;-71
2024/01/02 06:56:10;;;;;;;11.37;11.17;;;10.60;99.90;;;;;;5037056;28;20476;-73
2024/01/02 06:58:37;;;;;;;10.63;10.43;;;10.70;99.90;;;;;;5047186;28;20455;-71
2024/01/02 07:01:05;;;;;;;11.73;11.43;;;10.70;99.90;;;;;;5048584;28;20848;-71
2024/01/02 07:03:32;;;;;;;10.83;10.63;;;10.70;99.90;;;;;;5041084;28;20801;-71
2024/01/02 07:05:59;;;;;;;11.73;11.43;;;10.70;99.90;;;;;;5030878;28;20496;-72
2024/01/02 07:08:26;;;;;;;11.73;11.43;;;10.70;99.90;;;;;;5041665;28;20734;-74
2024/01/02 07:10:53;;;;;;;11.17;10.97;;;10.70;99.90;;;;;;5044432;28;20468;-71
2024/01/02 07:13:21;;;;;;;11.07;10.87;;;10.80;99.90;;;;;;5043386;28;20487;-72
2024/01/02 07:15:48;;;;;;;11.60;11.30;;;10.80;99.90;;;;;;5040123;28;20957;-74
2024/01/02 07:18:15;;;;;;;11.27;11.07;;;10.80;99.90;;;;;;5035215;28;20468;-71
2024/01/02 07:20:43;;;;;;;11.30;11.10;;;10.80;99.90;;;;;;5047026;28;20444;-72
2024/01/02 07:23:10;;;;;;;12.13;11.83;;;10.80;99.90;;;;;;5048605;28;20555;-73
2024/01/02 07:25:37;;;;;;;12.30;12.00;;;10.80;99.90;;;;;;5038972;28;20851;-74
2024/01/02 07:28:05;;;;;;;12.33;12.03;;;10.90;99.90;;;;;;5037971;28;20497;-71
2024/01/02 07:30:34;;;;;;;12.03;11.73;;;10.90;99.90;;;;;;5041857;28;20484;-72
2024/01/02 07:33:01;;;;;;;11.90;11.60;;;10.90;99.90;;;;;;5046655;28;20928;-71
2024/01/02 07:35:29;;;;;;;11.07;10.87;;;11.00;99.90;;;;;;5044428;28;20464;-71
2024/01/02 07:37:56;;;;;;;11.30;11.10;;;11.00;99.90;;;;;;5046639;28;20460;-73
2024/01/02 07:40:23;;;;;;;10.63;10.43;;;11.00;99.90;;;;;;5034844;28;20493;-70
2024/01/02 07:42:50;;;;;;;11.03;10.83;;;11.00;99.90;;;;;;5033920;28;20472;-71
2024/01/02 07:45:17;;;;;;;11.23;11.03;;;11.10;99.90;;;;;;5038929;28;20473;-71
2024/01/02 07:47:45;;;;;;;10.90;10.70;;;11.10;99.90;;;;;;5046940;28;20933;-71
2024/01/02 07:50:13;;;;;;;10.83;10.63;;;11.10;99.90;;;;;;5041806;28;20568;-72
2024/01/02 07:52:40;;;;;;;11.00;10.80;;;11.00;99.90;;;;;;5043355;28;20464;-71
2024/01/02 07:55:10;;;;;;;11.40;11.20;;;11.00;99.90;;;;;;5044098;28;20460;-72
2024/01/02 07:57:37;;;;;;;12.33;12.03;;;11.00;99.90;;;;;;5036311;28;20863;-71
2024/01/02 08:00:06;;;;;;;12.47;12.17;;;10.90;99.90;;;;;;5047725;28;20460;-71
2024/01/02 08:02:33;;;;;;;12.90;12.60;;;11.00;99.90;;;;;;5045657;28;20476;-71
2024/01/02 08:05:02;;;;;;;13.47;13.13;;;11.00;99.90;;;;;;5042263;28;20461;-71
2024/01/02 08:07:28;;;;;;;13.03;12.73;;;11.00;99.90;;;;;;5038099;28;20485;-73
2024/01/02 08:09:56;;;;;;;12.57;12.27;;;11.10;99.90;;;;;;5038828;28;20464;-71
2024/01/02 08:12:24;;;;;;;13.03;12.73;;;11.00;99.90;;;;;;5030089;28;20456;-71
2024/01/02 08:14:50;;;;;;;13.03;12.73;;;11.10;99.90;;;;;;5044145;28;20939;-72
2024/01/02 08:17:23;;;;;;;12.73;12.43;;;11.10;99.90;;;;;;5041552;28;20510;-74
2024/01/02 08:19:51;;;;;;;12.73;12.43;;;11.10;99.90;;;;;;5036275;28;20493;-70
2024/01/02 08:22:19;;;;;;;13.83;13.43;;;11.20;99.90;;;;;;5034124;28;20558;-71
2024/01/02 08:24:46;;;;;;;14.40;14.00;;;11.30;99.90;;;;;;5035570;28;20460;-71
2024/01/02 08:27:13;;;;;;;12.97;12.67;;;11.30;99.90;;;;;;5037114;28;20493;-71
2024/01/02 08:29:40;;;;;;;12.47;12.17;;;11.30;99.90;;;;;;5036280;28;20542;-71
2024/01/02 08:32:08;;;;;;;12.37;12.07;;;11.30;99.90;;;;;;5037909;28;20471;-71
2024/01/02 08:34:34;;;;;;;12.43;12.13;;;11.40;99.90;;;;;;5036294;28;20461;-71
2024/01/02 08:37:01;;;;;;;12.00;11.70;;;11.30;99.90;;;;;;5041742;28;20485;-71
2024/01/02 08:39:30;;;;;;;11.37;11.17;;;11.30;99.90;;;;;;5036098;28;20830;-71
2024/01/02 08:41:57;;;;;;;10.50;10.30;;;11.40;99.90;;;;;;5035967;28;20572;-71
2024/01/02 08:44:25;;;;;;;10.50;10.30;;;11.40;99.90;;;;;;5031955;28;21272;-70
2024/01/02 08:46:52;;;;;;;11.20;11.00;;;11.40;99.90;;;;;;5032440;28;20503;-71
2024/01/02 08:49:19;;;;;;;9.73;9.53;;;11.40;99.90;;;;;;5045427;28;21025;-71
2024/01/02 08:51:46;;;;;;;10.20;10.00;;;11.40;99.90;;;;;;5041210;28;20465;-71
2024/01/02 08:54:13;;;;;;;10.43;10.23;;;11.40;99.90;;;;;;5036292;28;20466;-72
2024/01/02 08:56:41;;;;;;;9.80;9.60;;;11.50;99.90;;;;;;5047026;28;20962;-73
2024/01/02 08:59:08;;;;;;;8.83;8.73;;;11.50;99.90;;;;;;5034288;28;20488;-72
2024/01/02 09:01:35;;;;;;;9.77;9.57;;;11.60;99.90;;;;;;5029498;28;20457;-71
2024/01/02 09:04:04;;;;;;;8.50;8.40;;;11.60;99.90;;;;;;5044185;28;21015;-72
2024/01/02 09:06:30;;;;;;;7.23;7.13;;;11.70;99.90;;;;;;5044822;28;20495;-71
2024/01/02 09:08:58;;;;;;;7.70;7.60;;;11.60;99.90;;;;;;5039920;28;20456;-74
2024/01/02 09:11:25;;;;;;;6.47;6.37;;;11.60;99.90;;;;;;5039365;28;20464;-73
2024/01/02 09:13:53;;;;;;;6.40;6.30;;;11.60;99.90;;;;;;5041497;28;20527;-71
2024/01/02 09:16:21;;;;;;;6.30;6.20;;;11.70;99.90;;;;;;5043266;28;20452;-71
2024/01/02 09:18:47;;;;;;;6.17;6.07;;;11.70;99.90;;;;;;5037737;28;20483;-71
2024/01/02 09:21:14;;;;;;;5.27;5.17;;;11.80;99.90;;;;;;5030270;28;20457;-71
2024/01/02 09:23:41;;;;;;;5.23;5.13;;;11.70;99.90;;;;;;5034554;28;20545;-74
2024/01/02 09:26:08;;;;;;;5.20;5.10;;;11.80;99.90;;;;;;5042800;28;20464;-71
2024/01/02 09:28:36;;;;;;;4.60;4.60;;;11.80;99.90;;;;;;5032996;28;20483;-71
2024/01/02 09:31:05;;;;;;;4.67;4.67;;;11.90;99.90;;;;;;5034858;28;20956;-74
2024/01/02 09:33:31;;;;;;;4.90;4.90;;;11.90;99.90;;;;;;5031688;28;20499;-71
2024/01/02 09:35:58;;;;;;;4.87;4.87;;;12.00;99.90;;;;;;5032633;28;20970;-71
2024/01/02 09:38:25;;;;;;;4.40;4.40;;;12.00;99.90;;;;;;5032320;28;20465;-71
2024/01/02 09:41:09;;;;;;;4.73;4.73;;;12.10;99.90;;;;;;5031088;28;20457;-73
2024/01/02 09:43:50;;;;;;;4.80;4.80;;;12.10;99.90;;;;;;5030380;28;20462;-72
2024/01/02 09:46:30;;;;;;;5.90;5.80;;;12.10;99.90;;;;;;5031748;28;20496;-71
2024/01/02 09:49:07;;;;;;;5.57;5.47;;;12.20;99.90;;;;;;5030201;28;20468;-71
2024/01/02 09:51:47;;;;;;;6.60;6.50;;;12.20;99.90;;;;;;5031457;28;20472;-73
2024/01/02 09:54:30;;;;;;;6.43;6.33;;;12.20;99.90;;;;;;5035151;28;20460;-72
2024/01/02 09:57:02;;;;;;;6.00;5.90;;;12.10;99.90;;;;;;5036011;28;20458;-71
2024/01/02 09:59:43;;;;;;;6.30;6.20;;;12.20;99.90;;;;;;5036691;28;20460;-72
2024/01/02 10:02:34;;;;;;;6.00;5.90;;;12.20;99.90;;;;;;5032273;28;20465;-74
2024/01/02 10:05:16;;;;;;;6.67;6.57;;;12.20;99.90;;;;;;5029819;28;20468;-72
2024/01/02 10:08:04;;;;;;;6.77;6.67;;;12.20;99.90;;;;;;5036179;28;20911;-70
2024/01/02 10:10:36;;;;;;;6.77;6.67;;;12.20;99.90;;;;;;5036320;28;20512;-71
2024/01/02 10:13:22;;;;;;;7.17;7.07;;;12.20;99.90;;;;;;5035562;28;20461;-73
2024/01/02 10:15:56;;;;;;;7.40;7.30;;;12.20;99.90;;;;;;5029929;28;20458;-72
2024/01/02 10:18:36;;;;;;;7.53;7.43;;;12.30;99.90;;;;;;5035142;28;20493;-71
2024/01/02 10:21:11;;;;;;;7.23;7.13;;;12.30;99.90;;;;;;5034100;28;20452;-70
2024/01/02 10:23:49;;;;;;;7.27;7.17;;;12.20;99.90;;;;;;5034964;28;20453;-71
2024/01/02 10:26:19;;;;;;;7.17;7.07;;;12.20;99.90;;;;;;5030635;28;20469;-70
2024/01/02 10:28:49;;;;;;;7.37;7.27;;;12.20;99.90;;;;;;5033050;28;20540;-71
2024/01/02 10:31:25;;;;;;;7.37;7.27;;;12.10;99.90;;;;;;5032348;28;20478;-72
2024/01/02 10:34:07;;;;;;;6.90;6.80;;;12.20;99.90;;;;;;5034577;28;20464;-70
2024/01/02 10:36:40;;;;;;;6.90;6.80;;;12.20;99.90;;;;;;5034600;28;20506;-72
2024/01/02 10:39:13;;;;;;;7.07;6.97;;;12.20;99.90;;;;;;5036272;28;20504;-71
2024/01/02 10:41:51;;;;;;;6.93;6.83;;;12.10;99.90;;;;;;5033486;28;20462;-71
2024/01/02 10:44:27;;;;;;;7.20;7.10;;;12.00;99.90;;;;;;5034151;28;20468;-72
2024/01/02 10:46:58;;;;;;;6.87;6.77;;;12.00;99.90;;;;;;5031584;28;20455;-71
2024/01/02 10:49:31;;;;;;;6.53;6.43;;;12.00;99.90;;;;;;5036945;28;20956;-71
2024/01/02 10:52:02;;;;;;;6.10;6.00;;;11.90;99.90;;;;;;5035874;28;20493;-70
2024/01/02 10:54:36;;;;;;;5.60;5.50;;;11.90;99.90;;;;;;5034393;28;20462;-72
2024/01/02 10:57:07;;;;;;;6.77;6.67;;;11.80;99.90;;;;;;5030260;28;20485;-69
2024/01/02 10:59:54;;;;;;;9.20;9.00;;;11.60;99.90;;;;;;5034700;28;20470;-69
2024/01/02 11:02:34;;;;;;;11.00;10.70;;;11.40;99.90;;;;;;5031601;28;20472;-70
2024/01/02 11:05:11;;;;;;;11.37;11.07;;;11.30;99.90;;;;;;5035545;28;20468;-69
2024/01/02 11:07:41;;;;;;;11.57;11.27;;;11.20;99.90;;;;;;5034133;28;20971;-71
2024/01/02 11:10:09;;;;;;;12.73;12.40;;;11.20;99.90;;;;;;5030905;28;20460;-69
2024/01/02 11:12:46;;;;;;;12.10;11.80;;;11.10;99.90;;;;;;5034310;28;20461;-72
2024/01/02 11:15:16;;;;;;;12.23;11.93;;;11.10;99.90;;;;;;5034136;28;20457;-72
2024/01/02 11:17:44;;;;;;;11.80;11.50;;;11.10;99.90;;;;;;5034778;28;20465;-73
2024/01/02 11:20:20;;;;;;;11.80;11.50;;;11.00;99.90;;;;;;5027949;28;20475;-70
2024/01/02 11:22:52;;;;;;;11.27;10.97;;;11.00;99.90;;;;;;5026618;28;20531;-73
2024/01/02 11:25:25;;;;;;;11.07;10.87;;;10.90;99.90;;;;;;5033064;28;20460;-71
2024/01/02 11:27:54;;;;;;;10.87;10.67;;;10.90;99.90;;;;;;5032191;28;21002;-71
2024/01/02 11:30:24;;;;;;;11.50;11.20;;;10.90;99.90;;;;;;5034032;28;20487;-70
2024/01/02 11:33:06;;;;;;;11.50;11.20;;;10.90;99.90;;;;;;5032645;28;20467;-71
2024/01/02 11:35:41;;;;;;;10.93;10.73;;;10.80;99.90;;;;;;5030587;28;20545;-71
2024/01/02 11:38:11;;;;;;;10.53;10.33;;;10.80;99.90;;;;;;5033906;28;20468;-71
2024/01/02 11:40:52;;;;;;;12.17;11.87;;;10.80;99.90;;;;;;5033454;28;20563;-70
2024/01/02 11:43:26;;;;;;;11.43;11.13;;;10.70;99.90;;;;;;5029576;28;20471;-73
2024/01/02 11:45:58;;;;;;;10.83;10.63;;;10.70;99.90;;;;;;5033298;28;20459;-71
2024/01/02 11:48:43;;;;;;;11.20;11.00;;;10.70;99.90;;;;;;5033629;28;20592;-71
2024/01/02 11:51:20;;;;;;;11.57;11.27;;;10.70;99.90;;;;;;5029306;28;20591;-71
2024/01/02 11:54:11;;;;;;;11.63;11.33;;;10.70;99.90;;;;;;5033797;28;20483;-74
2024/01/02 11:56:39;;;;;;;11.47;11.17;;;10.60;99.90;;;;;;5034159;28;20449;-72
2024/01/02 11:59:17;;;;;;;10.83;10.63;;;10.60;99.90;;;;;;5027931;28;20467;-69
2024/01/02 12:01:53;;;;;;;11.73;11.43;;;10.60;99.90;;;;;;5036096;28;20891;-74
2024/01/02 12:04:36;;;;;;;12.33;12.03;;;10.50;99.90;;;;;;5033232;28;20466;-71
2024/01/02 12:07:12;;;;;;;12.33;12.03;;;10.60;99.90;;;;;;5034922;28;20472;-71
2024/01/02 12:09:43;;;;;;;11.93;11.63;;;10.60;99.90;;;;;;5026983;28;20464;-71
2024/01/02 12:12:29;;;;;;;10.97;10.77;;;10.60;99.90;;;;;;5031822;28;20451;-74
2024/01/02 12:15:05;;;;;;;11.23;11.03;;;10.50;99.90;;;;;;5029789;28;20592;-71
2024/01/02 12:17:39;;;;;;;11.00;10.80;;;10.50;99.90;;;;;;5029837;28;20465;-71
2024/01/02 12:20:08;;;;;;;10.03;9.83;;;10.50;99.90;;;;;;5031241;28;20460;-71
2024/01/02 12:22:37;;;;;;;10.13;9.93;;;10.40;99.90;;;;;;5030630;28;20963;-72
2024/01/02 12:25:06;;;;;;;10.97;10.77;;;10.40;99.90;;;;;;5026272;28;21016;-71
2024/01/02 12:27:35;;;;;;;11.40;11.20;;;10.40;99.90;;;;;;5027210;28;20482;-71
2024/01/02 12:30:05;;;;;;;11.17;10.97;;;10.40;99.90;;;;;;5028519;28;20487;-71
2024/01/02 12:32:47;;;;;;;11.30;11.10;;;10.40;99.90;;;;;;5030849;28;20458;-73
2024/01/02 12:35:25;;;;;;;11.07;10.87;;;10.40;99.90;;;;;;5029569;28;20464;-70
2024/01/02 12:38:06;;;;;;;11.17;10.97;;;10.40;99.90;;;;;;5029368;28;20494;-72
2024/01/02 12:40:36;;;;;;;10.90;10.70;;;10.30;99.90;;;;;;5034901;28;20492;-74
2024/01/02 12:43:06;;;;;;;10.73;10.53;;;10.30;99.90;;;;;;5028385;28;20462;-72
2024/01/02 12:45:36;;;;;;;10.80;10.60;;;10.30;99.90;;;;;;5036122;28;20807;-73